Time;durP1;ratioP1;P1;durP2;ratioP2;P2;SDS_P1;SDS_P2;PMS_P1;PMS_P2;Temp;Humidity;BMP_temperature;BMP_pressure;BME280_temperature;BME280_humidity;BME280_pressure;Samples;Min_cycle;Max_cycle;Signal;HPM_P1;HPM_P2
2023/10/15 00:01:45;;;;;;;2.37;1.70;;;;;;;16.08;54.89;101884.50;5110844;27;20415;-68
2023/10/15 00:04:12;;;;;;;0.10;0.10;;;;;;;16.74;55.07;101890.41;5112583;27;20034;-69
2023/10/15 00:06:38;;;;;;;0.00;0.00;;;;;;;16.50;55.18;101882.94;5111349;27;20023;-68
2023/10/15 00:09:04;;;;;;;0.00;0.00;;;;;;;17.28;56.62;101888.47;5129454;27;20035;-69
2023/10/15 00:11:30;;;;;;;0.10;0.10;;;;;;;17.46;55.52;101890.72;5130098;27;20356;-69
2023/10/15 00:13:55;;;;;;;0.00;0.00;;;;;;;17.75;53.78;101889.19;5130783;27;20027;-69
2023/10/15 00:16:21;;;;;;;0.00;0.00;;;;;;;17.79;53.63;101888.22;5097322;28;20096;-68
2023/10/15 00:18:48;;;;;;;0.00;0.00;;;;;;;17.87;52.98;101866.00;5105806;27;20480;-69
2023/10/15 00:21:14;;;;;;;0.00;0.00;;;;;;;17.69;55.07;101862.88;5111139;27;20036;-69
2023/10/15 00:23:42;;;;;;;0.10;0.10;;;;;;;17.97;57.13;101864.94;5112533;27;20027;-69
2023/10/15 00:26:07;;;;;;;0.00;0.00;;;;;;;18.29;55.29;101879.13;5130580;27;20019;-68
2023/10/15 00:28:33;;;;;;;0.00;0.00;;;;;;;18.16;55.44;101869.75;5129394;27;20388;-68
2023/10/15 00:31:00;;;;;;;0.00;0.00;;;;;;;18.50;53.61;101859.13;5113437;28;20100;-68
2023/10/15 00:33:26;;;;;;;0.00;0.00;;;;;;;18.53;54.79;101861.69;5092399;28;20032;-69
2023/10/15 00:35:55;;;;;;;0.00;0.00;;;;;;;18.23;54.63;101869.56;5108165;28;20022;-68
2023/10/15 00:38:20;;;;;;;0.00;0.00;;;;;;;18.55;53.86;101859.88;5118522;27;20069;-69
2023/10/15 00:40:51;;;;;;;0.00;0.00;;;;;;;18.29;54.98;101850.84;5117248;27;20437;-68
2023/10/15 00:43:18;;;;;;;0.00;0.00;;;;;;;18.47;53.54;101852.13;5126885;27;20482;-69
2023/10/15 00:45:44;;;;;;;0.00;0.00;;;;;;;18.51;53.46;101852.09;5109502;28;20030;-68
2023/10/15 00:48:24;;;;;;;0.00;0.00;;;;;;;18.20;54.55;101839.66;5109716;28;20753;-68
2023/10/15 00:50:51;;;;;;;0.00;0.00;;;;;;;18.53;53.83;101850.25;5109401;28;20143;-68
2023/10/15 00:53:23;;;;;;;0.00;0.00;;;;;;;18.32;52.65;101849.91;5117207;27;20095;-69
2023/10/15 00:55:53;;;;;;;0.00;0.00;;;;;;;18.07;52.83;101858.47;5096418;28;20027;-68
2023/10/15 00:58:31;;;;;;;0.00;0.00;;;;;;;18.55;54.32;101866.97;5113715;28;20035;-68
2023/10/15 01:01:00;;;;;;;0.00;0.00;;;;;;;18.17;52.55;101874.13;5113932;27;20047;-68
2023/10/15 01:03:32;;;;;;;0.00;0.00;;;;;;;17.26;54.85;101874.44;5114428;28;20024;-69
2023/10/15 01:06:01;;;;;;;0.00;0.00;;;;;;;17.66;54.43;101893.84;5116324;27;20057;-69
2023/10/15 01:08:34;;;;;;;0.00;0.00;;;;;;;17.43;54.01;101906.66;5094842;28;20382;-69
2023/10/15 01:11:08;;;;;;;0.00;0.00;;;;;;;15.84;56.80;101908.63;5120626;27;20027;-69
2023/10/15 01:13:35;;;;;;;0.00;0.00;;;;;;;15.75;58.87;101907.84;5116387;27;20030;-68
2023/10/15 01:16:04;;;;;;;0.00;0.00;;;;;;;15.21;61.02;101913.84;5114803;27;20035;-68
2023/10/15 01:18:30;;;;;;;0.00;0.00;;;;;;;15.80;59.26;101912.19;5128458;27;20100;-69
2023/10/15 01:20:55;;;;;;;0.00;0.00;;;;;;;16.27;55.88;101907.97;5095249;28;20479;-69
2023/10/15 01:23:31;;;;;;;0.00;0.00;;;;;;;16.22;60.52;101896.63;5095369;28;20020;-70
2023/10/15 01:26:05;;;;;;;0.00;0.00;;;;;;;16.16;56.56;101887.03;5112989;28;20130;-69
2023/10/15 01:28:36;;;;;;;0.00;0.00;;;;;;;15.77;58.30;101884.97;5113268;28;20103;-70
2023/10/15 01:31:05;;;;;;;0.00;0.00;;;;;;;16.03;59.02;101889.03;5113401;27;20062;-69
2023/10/15 01:33:46;;;;;;;0.00;0.00;;;;;;;16.26;55.70;101896.53;5122347;27;20031;-70
2023/10/15 01:36:18;;;;;;;0.10;0.10;;;;;;;16.15;61.52;101892.34;5113721;27;20034;-68
2023/10/15 01:38:44;;;;;;;0.00;0.00;;;;;;;16.25;63.81;101893.91;5132148;27;20032;-70
2023/10/15 01:41:13;;;;;;;0.00;0.00;;;;;;;15.91;59.43;101894.47;5133777;27;20015;-69
2023/10/15 01:43:39;;;;;;;0.00;0.00;;;;;;;16.58;61.58;101891.56;5129986;27;20027;-69
2023/10/15 01:46:10;;;;;;;0.10;0.10;;;;;;;16.55;58.30;101881.09;5120521;27;20120;-69
2023/10/15 01:48:41;;;;;;;0.00;0.00;;;;;;;16.84;58.92;101877.03;5113481;28;20026;-69
2023/10/15 01:51:07;;;;;;;0.00;0.00;;;;;;;16.61;57.77;101876.56;5118182;27;20023;-68
2023/10/15 01:53:37;;;;;;;0.00;0.00;;;;;;;16.98;56.42;101875.03;5114452;27;20507;-68
2023/10/15 01:56:04;;;;;;;0.00;0.00;;;;;;;16.76;55.50;101875.41;5114020;27;20077;-69
2023/10/15 01:58:32;;;;;;;0.00;0.00;;;;;;;17.08;56.38;101881.84;5098662;27;20485;-69
2023/10/15 02:01:20;;;;;;;0.00;0.00;;;;;;;15.24;57.76;101898.00;5120205;27;20054;-69
2023/10/15 02:03:45;;;;;;;0.00;0.00;;;;;;;16.56;56.68;101877.56;5111175;28;20027;-68
2023/10/15 02:06:11;;;;;;;0.00;0.00;;;;;;;16.49;56.13;101873.31;5101826;27;20060;-69
2023/10/15 02:08:39;;;;;;;0.00;0.00;;;;;;;16.31;56.48;101872.72;5132708;27;20050;-68
2023/10/15 02:11:17;;;;;;;0.00;0.00;;;;;;;16.39;59.02;101870.81;5111035;27;20478;-68
2023/10/15 02:13:45;;;;;;;0.00;0.00;;;;;;;16.14;55.50;101861.56;5099500;27;20031;-68
2023/10/15 02:16:15;;;;;;;0.00;0.00;;;;;;;16.18;58.82;101868.53;5112149;28;20636;-68
2023/10/15 02:18:45;;;;;;;0.00;0.00;;;;;;;16.73;56.02;101859.63;5094472;28;20092;-68
2023/10/15 02:21:16;;;;;;;0.00;0.00;;;;;;;16.62;56.34;101866.88;5129777;27;20211;-68
2023/10/15 02:23:52;;;;;;;0.00;0.00;;;;;;;15.89;56.95;101861.97;5112846;28;20026;-68
2023/10/15 02:26:18;;;;;;;0.00;0.00;;;;;;;16.30;55.38;101876.25;5096066;27;20520;-68
2023/10/15 02:28:47;;;;;;;0.47;0.47;;;;;;;16.95;53.63;101886.53;5112215;28;20024;-68
2023/10/15 02:31:20;;;;;;;0.00;0.00;;;;;;;16.56;53.52;101899.53;5113325;27;20027;-68
2023/10/15 02:33:45;;;;;;;0.00;0.00;;;;;;;16.04;55.17;101917.09;5113881;27;20031;-68
2023/10/15 02:36:15;;;;;;;0.00;0.00;;;;;;;16.44;56.08;101942.84;5123061;27;20075;-69
2023/10/15 02:38:52;;;;;;;0.00;0.00;;;;;;;13.96;61.42;101933.41;5112464;28;20031;-69
2023/10/15 02:41:20;;;;;;;0.00;0.00;;;;;;;13.84;60.12;101922.97;5131166;27;20023;-69
2023/10/15 02:43:53;;;;;;;0.00;0.00;;;;;;;15.02;56.33;101914.94;5132179;27;20033;-69
2023/10/15 02:46:24;;;;;;;0.00;0.00;;;;;;;15.34;56.02;101906.63;5113101;27;20023;-68
2023/10/15 02:48:53;;;;;;;0.00;0.00;;;;;;;15.49;55.10;101896.81;5113434;27;20026;-68
2023/10/15 02:51:26;;;;;;;0.00;0.00;;;;;;;15.69;55.78;101905.31;5113897;27;20076;-68
2023/10/15 02:53:53;;;;;;;0.00;0.00;;;;;;;15.60;55.69;101897.53;5128920;27;20027;-68
2023/10/15 02:56:20;;;;;;;0.00;0.00;;;;;;;15.73;56.53;101896.47;5125449;27;20027;-68
2023/10/15 02:58:46;;;;;;;0.00;0.00;;;;;;;16.44;55.09;101910.31;5113738;27;20110;-68
2023/10/15 03:01:19;;;;;;;0.00;0.00;;;;;;;16.31;57.16;101907.03;5113364;27;20043;-68
2023/10/15 03:03:49;;;;;;;0.00;0.00;;;;;;;16.31;54.76;101914.94;5131996;27;20037;-67
2023/10/15 03:06:18;;;;;;;0.10;0.10;;;;;;;14.70;57.08;101943.34;5131014;27;20022;-68
2023/10/15 03:08:46;;;;;;;0.00;0.00;;;;;;;13.94;60.85;101950.91;5115966;27;20035;-69
2023/10/15 03:11:18;;;;;;;0.00;0.00;;;;;;;14.12;60.15;101922.75;5110009;27;20055;-70
2023/10/15 03:13:50;;;;;;;0.00;0.00;;;;;;;13.53;62.11;101902.09;5092808;28;20030;-68
2023/10/15 03:16:18;;;;;;;0.10;0.10;;;;;;;13.07;66.22;101888.25;5092933;28;20047;-69
2023/10/15 03:18:48;;;;;;;0.30;0.30;;;;;;;13.50;63.97;101867.97;5111143;28;20041;-69
2023/10/15 03:21:26;;;;;;;0.30;0.30;;;;;;;13.91;61.73;101864.22;5110653;28;20524;-68
2023/10/15 03:23:55;;;;;;;0.20;0.20;;;;;;;14.39;57.46;101859.41;5098763;28;20050;-69
2023/10/15 03:26:30;;;;;;;0.00;0.00;;;;;;;13.51;60.32;101862.72;5110945;27;20125;-68
2023/10/15 03:28:58;;;;;;;0.00;0.00;;;;;;;13.99;56.35;101865.03;5092770;28;20157;-68
2023/10/15 03:31:27;;;;;;;0.00;0.00;;;;;;;14.30;56.05;101867.41;5094700;27;20417;-68
2023/10/15 03:36:46;;;;;;;0.00;0.00;;;;;;;15.22;55.30;101893.63;5124317;27;20027;-68
2023/10/15 03:39:57;;;;;;;0.00;0.00;;;;;;;14.55;57.89;101898.75;5130924;27;20055;-68
2023/10/15 03:42:09;;;;;;;0.00;0.00;;;;;;;15.11;58.72;101904.28;5109568;27;20429;-69
2023/10/15 03:44:44;;;;;;;0.00;0.00;;;;;;;15.42;55.79;101896.88;5115483;27;20402;-68
2023/10/15 03:47:13;;;;;;;0.00;0.00;;;;;;;15.17;56.76;101921.81;5112394;27;20015;-68
2023/10/15 03:49:39;;;;;;;0.00;0.00;;;;;;;15.70;54.14;101925.50;5111811;27;20031;-68
2023/10/15 03:52:08;;;;;;;0.00;0.00;;;;;;;15.31;54.72;101930.41;5131078;27;20117;-68
2023/10/15 03:54:37;;;;;;;0.00;0.00;;;;;;;15.36;55.83;101923.31;5121932;27;20023;-68
2023/10/15 03:57:03;;;;;;;0.00;0.00;;;;;;;14.79;54.67;101904.66;5109797;27;20475;-68
2023/10/15 03:59:28;;;;;;;0.00;0.00;;;;;;;15.21;54.50;101918.25;5110368;28;20016;-67
2023/10/15 04:01:56;;;;;;;0.00;0.00;;;;;;;15.46;55.42;101897.72;5092002;28;20507;-67
2023/10/15 04:04:22;;;;;;;0.00;0.00;;;;;;;15.73;57.27;101896.47;5116282;27;20019;-68
2023/10/15 04:07:03;;;;;;;0.00;0.00;;;;;;;16.29;56.03;101903.53;5119482;27;20030;-68
2023/10/15 04:09:33;;;;;;;0.00;0.00;;;;;;;16.50;53.85;101894.38;5112535;27;20023;-68
2023/10/15 04:11:59;;;;;;;0.00;0.00;;;;;;;15.65;54.33;101898.34;5130945;27;20019;-68
2023/10/15 04:14:28;;;;;;;0.00;0.00;;;;;;;15.50;54.44;101903.81;5130744;27;20015;-68
2023/10/15 04:16:55;;;;;;;0.00;0.00;;;;;;;15.88;55.56;101905.06;5121139;27;20023;-68
2023/10/15 04:19:21;;;;;;;0.00;0.00;;;;;;;16.32;54.58;101911.41;5116007;27;20612;-69
2023/10/15 04:21:46;;;;;;;0.00;0.00;;;;;;;16.17;54.85;101901.09;5128971;27;20098;-69
2023/10/15 04:24:14;;;;;;;0.10;0.10;;;;;;;16.26;55.94;101898.31;5108647;28;20102;-68
2023/10/15 04:26:42;;;;;;;0.00;0.00;;;;;;;16.38;53.27;101898.09;5092176;28;20038;-68
2023/10/15 04:29:18;;;;;;;0.10;0.10;;;;;;;16.19;55.07;101899.31;5092015;27;20561;-68
2023/10/15 04:31:56;;;;;;;0.00;0.00;;;;;;;16.20;54.68;101906.34;5112736;27;20102;-69
2023/10/15 04:34:25;;;;;;;0.00;0.00;;;;;;;16.24;57.09;101908.03;5111644;28;20130;-69
2023/10/15 04:36:51;;;;;;;0.00;0.00;;;;;;;15.95;55.99;101909.34;5117236;27;20483;-68
2023/10/15 04:39:21;;;;;;;0.00;0.00;;;;;;;16.47;54.25;101904.09;5121026;27;20031;-68
2023/10/15 04:41:49;;;;;;;0.20;0.20;;;;;;;16.71;52.79;101908.94;5109680;28;20049;-69
2023/10/15 04:44:24;;;;;;;0.00;0.00;;;;;;;16.43;54.63;101904.16;5096648;28;20027;-68
2023/10/15 04:46:53;;;;;;;0.00;0.00;;;;;;;16.53;54.79;101911.94;5130677;28;20023;-68
2023/10/15 04:49:18;;;;;;;0.00;0.00;;;;;;;15.54;53.74;101906.38;5128947;28;20335;-69
2023/10/15 04:51:44;;;;;;;0.00;0.00;;;;;;;15.16;55.56;101925.31;5126217;28;20055;-68
2023/10/15 04:54:10;;;;;;;0.00;0.00;;;;;;;14.25;60.07;101933.16;5091504;28;20394;-68
2023/10/15 04:56:36;;;;;;;0.00;0.00;;;;;;;14.75;58.40;101957.34;5120053;28;20103;-68
2023/10/15 04:59:02;;;;;;;0.00;0.00;;;;;;;15.35;59.44;101984.78;5130377;28;20019;-69
2023/10/15 05:01:27;;;;;;;0.00;0.00;;;;;;;14.52;61.48;101980.31;5110984;28;20054;-69
2023/10/15 05:03:53;;;;;;;0.00;0.00;;;;;;;14.56;62.82;101963.59;5129618;28;20146;-69
2023/10/15 05:06:21;;;;;;;0.00;0.00;;;;;;;14.69;61.49;101949.50;5125544;28;20015;-69
2023/10/15 05:08:47;;;;;;;0.00;0.00;;;;;;;15.88;56.80;101936.69;5109866;28;20020;-69
2023/10/15 05:11:13;;;;;;;0.00;0.00;;;;;;;16.03;56.04;101936.47;5090726;28;20023;-69
2023/10/15 05:13:42;;;;;;;0.00;0.00;;;;;;;15.87;56.90;101930.56;5096499;28;20072;-69
2023/10/15 05:16:08;;;;;;;0.00;0.00;;;;;;;16.56;55.13;101932.97;5110213;28;20079;-68
2023/10/15 05:18:33;;;;;;;0.00;0.00;;;;;;;16.07;54.34;101935.53;5111769;28;20031;-68
2023/10/15 05:21:00;;;;;;;1.33;1.33;;;;;;;16.53;54.10;101933.91;5129909;28;20055;-68
2023/10/15 05:23:26;;;;;;;0.00;0.00;;;;;;;16.05;54.36;101934.69;5129371;28;20428;-69
2023/10/15 05:25:54;;;;;;;0.10;0.10;;;;;;;15.47;54.76;101935.47;5103148;28;20038;-68
2023/10/15 05:28:19;;;;;;;0.00;0.00;;;;;;;15.36;55.16;101923.31;5111398;28;20110;-68
2023/10/15 05:30:45;;;;;;;0.00;0.00;;;;;;;15.14;55.33;101921.81;5110963;28;20031;-68
2023/10/15 05:33:11;;;;;;;0.00;0.00;;;;;;;15.20;55.24;101921.75;5098594;28;20414;-67
2023/10/15 05:35:37;;;;;;;0.00;0.00;;;;;;;14.63;54.52;101930.25;5091226;28;20494;-68
2023/10/15 05:38:04;;;;;;;0.00;0.00;;;;;;;15.10;54.32;101924.50;5098513;27;20015;-68
2023/10/15 05:40:29;;;;;;;0.00;0.00;;;;;;;15.40;53.50;101925.03;5112490;27;20038;-68
2023/10/15 05:42:55;;;;;;;0.00;0.00;;;;;;;14.92;54.59;101932.63;5113919;27;20406;-68
2023/10/15 05:45:20;;;;;;;0.00;0.00;;;;;;;14.91;52.68;101930.84;5133514;27;20038;-68
2023/10/15 05:47:46;;;;;;;0.10;0.10;;;;;;;14.80;52.59;101938.00;5130109;27;20031;-68
2023/10/15 05:50:12;;;;;;;0.00;0.00;;;;;;;15.31;52.60;101935.66;5133439;27;20018;-68
2023/10/15 05:52:41;;;;;;;0.83;0.83;;;;;;;14.97;55.65;101943.94;5132035;27;20015;-68
2023/10/15 05:55:06;;;;;;;0.00;0.00;;;;;;;15.50;52.90;101962.66;5113728;27;20481;-68
2023/10/15 05:57:33;;;;;;;0.43;0.43;;;;;;;15.23;52.29;101963.84;5115464;27;20107;-68
2023/10/15 05:59:59;;;;;;;1.17;0.77;;;;;;;15.41;52.82;101962.75;5112002;27;20036;-67
2023/10/15 06:02:24;;;;;;;0.00;0.00;;;;;;;15.49;52.35;101973.22;5094889;28;20076;-67
2023/10/15 06:04:52;;;;;;;0.00;0.00;;;;;;;15.81;52.72;101971.94;5113192;28;20210;-68
2023/10/15 06:07:18;;;;;;;0.00;0.00;;;;;;;14.93;53.13;101982.59;5110646;27;20106;-68
2023/10/15 06:09:46;;;;;;;0.00;0.00;;;;;;;14.43;54.79;101981.25;5124870;27;20114;-68
2023/10/15 06:12:13;;;;;;;0.00;0.00;;;;;;;15.16;54.29;101997.28;5099555;27;20030;-68
2023/10/15 06:14:38;;;;;;;0.00;0.00;;;;;;;14.93;52.63;102006.31;5132349;27;20076;-67
2023/10/15 06:17:05;;;;;;;0.00;0.00;;;;;;;14.49;55.20;102001.38;5133272;27;20019;-68
2023/10/15 06:19:30;;;;;;;0.00;0.00;;;;;;;13.44;57.46;102007.22;5114474;27;20072;-69
2023/10/15 06:21:56;;;;;;;0.00;0.00;;;;;;;13.12;60.45;102005.50;5093548;28;20483;-67
2023/10/15 06:24:23;;;;;;;0.00;0.00;;;;;;;14.14;57.74;101997.25;5118500;27;20383;-68
2023/10/15 06:26:49;;;;;;;0.00;0.00;;;;;;;14.53;56.45;101989.94;5113002;27;20072;-67
2023/10/15 06:29:15;;;;;;;0.00;0.00;;;;;;;15.10;56.03;101987.69;5111828;28;20032;-68
2023/10/15 06:31:40;;;;;;;0.00;0.00;;;;;;;15.24;55.17;101981.41;5112650;28;20507;-68
2023/10/15 06:34:09;;;;;;;0.10;0.10;;;;;;;15.14;54.83;101985.00;5110570;28;20418;-68
2023/10/15 06:36:34;;;;;;;0.00;0.00;;;;;;;15.43;55.29;101988.19;5121141;27;20035;-68
2023/10/15 06:39:03;;;;;;;0.00;0.00;;;;;;;15.66;53.85;102004.63;5131365;27;20050;-68
2023/10/15 06:41:28;;;;;;;0.00;0.00;;;;;;;15.62;53.38;102006.44;5132364;27;20123;-68
2023/10/15 06:43:54;;;;;;;0.00;0.00;;;;;;;15.92;54.11;102007.81;5131131;27;20488;-68
2023/10/15 06:46:21;;;;;;;0.00;0.00;;;;;;;15.82;53.40;102005.34;5128006;27;20436;-68
2023/10/15 06:48:46;;;;;;;0.00;0.00;;;;;;;14.86;54.83;102007.22;5114211;27;20038;-68
2023/10/15 06:51:13;;;;;;;0.00;0.00;;;;;;;14.95;55.39;102011.56;5115749;27;20028;-68
2023/10/15 06:53:38;;;;;;;0.00;0.00;;;;;;;15.32;54.06;102011.16;5120727;27;20031;-68
2023/10/15 06:56:06;;;;;;;6.90;1.90;;;;;;;15.36;52.68;102010.25;5124283;27;20038;-68
2023/10/15 06:58:35;;;;;;;0.00;0.00;;;;;;;15.87;53.43;102019.34;5122975;27;20106;-68
2023/10/15 07:01:07;;;;;;;0.00;0.00;;;;;;;15.04;53.70;102011.47;5105902;27;20051;-68
2023/10/15 07:03:33;;;;;;;0.00;0.00;;;;;;;15.88;54.66;102018.41;5128536;27;20042;-68
2023/10/15 07:05:59;;;;;;;0.00;0.00;;;;;;;15.88;54.01;102013.16;5113678;27;20474;-68
2023/10/15 07:08:25;;;;;;;0.00;0.00;;;;;;;16.11;54.67;102008.44;5112716;27;20038;-67
2023/10/15 07:10:51;;;;;;;0.00;0.00;;;;;;;16.39;53.08;102008.03;5110984;27;20035;-68
2023/10/15 07:13:18;;;;;;;0.00;0.00;;;;;;;16.65;54.05;101998.81;5113968;27;20046;-68
2023/10/15 07:15:45;;;;;;;0.00;0.00;;;;;;;17.10;52.92;102016.53;5132173;27;20019;-67
2023/10/15 07:18:11;;;;;;;0.03;0.03;;;;;;;16.96;51.22;102041.41;5123555;27;20031;-69
2023/10/15 07:20:36;;;;;;;0.00;0.00;;;;;;;16.61;52.71;102055.19;5094799;27;20031;-68
2023/10/15 07:23:02;;;;;;;0.00;0.00;;;;;;;15.41;53.04;102063.75;5101886;27;20035;-68
2023/10/15 07:25:28;;;;;;;0.00;0.00;;;;;;;15.65;53.93;102055.56;5113012;27;20031;-68
2023/10/15 07:27:56;;;;;;;0.00;0.00;;;;;;;14.55;56.51;102069.75;5111228;28;20038;-68
2023/10/15 07:30:21;;;;;;;0.00;0.00;;;;;;;15.14;55.66;102071.91;5110546;27;20085;-68
2023/10/15 07:32:47;;;;;;;0.00;0.00;;;;;;;14.52;58.50;102086.44;5121309;27;20027;-68
2023/10/15 07:35:15;;;;;;;0.00;0.00;;;;;;;14.68;59.42;102087.22;5125366;27;20102;-68
2023/10/15 07:37:43;;;;;;;0.00;0.00;;;;;;;13.91;60.52;102100.75;5092849;28;20031;-68
2023/10/15 07:40:22;;;;;;;0.07;0.07;;;;;;;14.55;60.95;102112.72;5114495;27;20027;-68
2023/10/15 07:42:58;;;;;;;0.00;0.00;;;;;;;14.36;60.94;102117.19;5130856;27;20058;-67
2023/10/15 07:45:28;;;;;;;0.00;0.00;;;;;;;14.00;61.00;102118.22;5131316;27;20478;-68
2023/10/15 07:47:54;;;;;;;0.00;0.00;;;;;;;15.06;57.86;102115.00;5130443;27;20110;-67
2023/10/15 07:50:23;;;;;;;0.00;0.00;;;;;;;14.89;57.75;102116.88;5124511;27;20438;-67
2023/10/15 07:52:49;;;;;;;0.00;0.00;;;;;;;14.50;58.78;102119.75;5121159;27;20072;-67
2023/10/15 07:55:16;;;;;;;0.00;0.00;;;;;;;14.39;56.27;102116.31;5112415;27;20363;-67
2023/10/15 07:57:42;;;;;;;0.00;0.00;;;;;;;14.48;56.15;102120.63;5131568;27;20479;-67
2023/10/15 08:00:15;;;;;;;0.00;0.00;;;;;;;13.94;56.20;102119.13;5130248;27;20123;-68
2023/10/15 08:02:41;;;;;;;0.00;0.00;;;;;;;14.97;54.78;102116.84;5104520;27;20601;-66
2023/10/15 08:05:08;;;;;;;0.00;0.00;;;;;;;15.20;54.34;102127.19;5095492;28;20027;-68
2023/10/15 08:07:34;;;;;;;0.37;0.37;;;;;;;14.75;54.98;102130.16;5112307;27;20046;-68
2023/10/15 08:10:00;;;;;;;0.00;0.00;;;;;;;14.31;55.62;102112.84;5126608;27;20346;-68
2023/10/15 08:12:27;;;;;;;0.00;0.00;;;;;;;15.55;55.78;102118.06;5092240;28;20867;-68
2023/10/15 08:14:54;;;;;;;0.20;0.20;;;;;;;15.21;57.14;102128.94;5093830;27;20109;-68
2023/10/15 08:17:20;;;;;;;0.00;0.00;;;;;;;15.54;55.37;102132.16;5116615;27;20485;-67
2023/10/15 08:19:46;;;;;;;0.00;0.00;;;;;;;15.88;55.03;102126.50;5098760;27;20496;-67
2023/10/15 08:22:12;;;;;;;0.00;0.00;;;;;;;14.98;56.98;102130.00;5098009;27;20034;-68
2023/10/15 08:24:38;;;;;;;0.00;0.00;;;;;;;15.05;57.30;102129.03;5089452;27;20026;-67
2023/10/15 08:27:05;;;;;;;0.00;0.00;;;;;;;15.52;56.86;102123.38;5107699;28;20030;-67
2023/10/15 08:29:30;;;;;;;0.00;0.00;;;;;;;15.61;57.40;102137.31;5110972;27;20031;-68
2023/10/15 08:31:56;;;;;;;0.00;0.00;;;;;;;15.88;55.83;102158.16;5101077;28;20402;-68
2023/10/15 08:34:23;;;;;;;0.00;0.00;;;;;;;15.59;55.96;102154.91;5108585;28;20042;-68
2023/10/15 08:36:49;;;;;;;0.00;0.00;;;;;;;14.55;60.06;102172.38;5103942;28;20441;-67
2023/10/15 08:39:14;;;;;;;0.00;0.00;;;;;;;15.13;59.80;102178.16;5117174;27;20032;-68
2023/10/15 08:41:43;;;;;;;1.17;1.17;;;;;;;15.46;59.14;102170.88;5116707;27;20398;-67
2023/10/15 08:44:09;;;;;;;0.00;0.00;;;;;;;14.87;59.34;102172.19;5109380;27;20027;-67
2023/10/15 08:46:39;;;;;;;1.07;0.93;;;;;;;16.39;55.44;102171.63;5115663;28;20038;-68
2023/10/15 08:49:08;;;;;;;0.00;0.00;;;;;;;17.17;54.64;102162.59;5109240;28;20023;-68
2023/10/15 08:51:34;;;;;;;0.00;0.00;;;;;;;17.52;52.73;102156.69;5100380;28;20023;-68
2023/10/15 08:54:02;;;;;;;0.10;0.10;;;;;;;17.45;51.41;102166.50;5115213;28;20107;-68
2023/10/15 08:56:30;;;;;;;0.87;0.67;;;;;;;17.01;53.54;102162.84;5098859;28;20103;-67
2023/10/15 08:58:57;;;;;;;3.60;2.37;;;;;;;16.94;53.57;102174.41;5121051;28;20031;-68
2023/10/15 09:01:23;;;;;;;0.00;0.00;;;;;;;17.62;53.23;102173.25;5123175;28;20054;-68
2023/10/15 09:03:54;;;;;;;0.83;0.40;;;;;;;18.02;50.86;102185.75;5127808;28;20027;-68
2023/10/15 09:06:20;;;;;;;0.00;0.00;;;;;;;18.09;51.13;102195.31;5130340;28;20106;-68
2023/10/15 09:08:46;;;;;;;0.10;0.10;;;;;;;17.99;51.21;102199.03;5125449;28;20172;-67
2023/10/15 09:11:12;;;;;;;0.00;0.00;;;;;;;17.17;52.94;102218.06;5091044;28;20428;-68
2023/10/15 09:13:38;;;;;;;0.10;0.10;;;;;;;17.36;53.93;102214.22;5095454;27;20023;-67
2023/10/15 09:16:06;;;;;;;0.10;0.10;;;;;;;15.85;55.28;102242.56;5121032;27;20123;-67
2023/10/15 09:18:35;;;;;;;0.03;0.03;;;;;;;14.95;57.07;102248.50;5119276;27;20496;-67
2023/10/15 09:21:03;;;;;;;0.00;0.00;;;;;;;15.56;56.24;102241.03;5106378;27;20087;-68
2023/10/15 09:23:35;;;;;;;0.20;0.20;;;;;;;15.67;54.99;102220.72;5113959;27;20027;-68
2023/10/15 09:26:01;;;;;;;0.00;0.00;;;;;;;15.47;55.21;102225.28;5125325;27;20041;-68
2023/10/15 09:28:27;;;;;;;0.00;0.00;;;;;;;16.68;53.54;102231.06;5134824;27;20045;-68
2023/10/15 09:31:02;;;;;;;0.00;0.00;;;;;;;16.79;53.89;102236.19;5130119;27;20591;-67
2023/10/15 09:33:32;;;;;;;0.00;0.00;;;;;;;17.22;52.72;102242.66;5110508;27;20389;-68
2023/10/15 09:35:59;;;;;;;0.00;0.00;;;;;;;17.16;52.11;102248.91;5122237;27;20110;-68
2023/10/15 09:38:25;;;;;;;0.00;0.00;;;;;;;17.53;52.65;102247.44;5112721;28;20030;-67
2023/10/15 09:40:55;;;;;;;0.00;0.00;;;;;;;17.31;52.76;102253.09;5115042;27;20035;-67
2023/10/15 09:43:23;;;;;;;0.00;0.00;;;;;;;16.84;51.08;102254.59;5116427;27;20051;-68
2023/10/15 09:45:50;;;;;;;0.00;0.00;;;;;;;17.37;50.14;102255.63;5113504;28;20038;-68
2023/10/15 09:48:16;;;;;;;2.93;0.63;;;;;;;17.29;51.36;102265.44;5112646;28;20116;-68
2023/10/15 09:50:42;;;;;;;0.07;0.07;;;;;;;17.07;52.81;102260.47;5102521;27;20382;-67
2023/10/15 09:53:10;;;;;;;0.00;0.00;;;;;;;16.63;51.52;102269.84;5112614;27;20022;-68
2023/10/15 09:55:42;;;;;;;0.00;0.00;;;;;;;17.01;51.93;102276.41;5102338;27;20425;-67
2023/10/15 09:58:10;;;;;;;0.00;0.00;;;;;;;17.52;52.08;102261.56;5112447;28;20033;-68
2023/10/15 10:03:47;;;;;;;0.00;0.00;;;;;;;18.19;50.65;102261.28;5132472;27;20027;-68
2023/10/15 10:06:50;;;;;;;0.03;0.03;;;;;;;18.50;49.45;102263.31;5132387;27;20026;-67
2023/10/15 10:09:40;;;;;;;0.00;0.00;;;;;;;18.60;50.12;102256.91;5115802;27;20042;-68
2023/10/15 10:12:18;;;;;;;0.03;0.03;;;;;;;18.03;50.66;102264.22;5113574;27;20513;-68
2023/10/15 10:15:10;;;;;;;0.00;0.00;;;;;;;18.12;48.75;102258.75;5112119;28;20032;-68
2023/10/15 10:17:40;;;;;;;0.10;0.10;;;;;;;18.42;50.63;102266.09;5116808;27;20474;-67
2023/10/15 10:20:12;;;;;;;0.10;0.10;;;;;;;18.71;48.47;102268.16;5123635;27;20034;-68
2023/10/15 10:22:39;;;;;;;3.72;1.55;;;;;;;17.37;49.13;102283.81;5097440;27;20034;-68
2023/10/15 10:25:05;;;;;;;0.00;0.00;;;;;;;19.02;47.82;102294.00;5096320;28;20039;-68
2023/10/15 10:27:41;;;;;;;0.30;0.30;;;;;;;18.89;47.23;102287.22;5109120;27;20030;-68
2023/10/15 10:30:29;;;;;;;0.30;0.30;;;;;;;19.20;46.13;102286.56;5099769;28;20173;-67
2023/10/15 10:32:58;;;;;;;0.20;0.20;;;;;;;19.45;45.97;102281.53;5112699;28;20031;-67
2023/10/15 10:35:26;;;;;;;0.00;0.00;;;;;;;18.70;47.11;102276.13;5112386;28;20020;-67
2023/10/15 10:38:10;;;;;;;0.00;0.00;;;;;;;19.52;46.58;102272.50;5099091;27;20028;-68
2023/10/15 10:40:54;;;;;;;0.10;0.10;;;;;;;19.15;47.43;102273.38;5099688;27;20011;-67
2023/10/15 10:43:26;;;;;;;0.00;0.00;;;;;;;18.58;48.95;102266.69;5118768;27;20092;-67
2023/10/15 10:46:01;;;;;;;0.83;0.83;;;;;;;19.05;48.64;102262.13;5096777;27;20077;-67
2023/10/15 10:48:29;;;;;;;0.00;0.00;;;;;;;19.49;46.70;102289.38;5100478;27;20542;-67
2023/10/15 10:51:11;;;;;;;0.10;0.10;;;;;;;19.21;46.81;102289.16;5115774;27;20031;-67
2023/10/15 10:53:37;;;;;;;0.10;0.10;;;;;;;19.32;47.22;102302.16;5093891;28;20024;-67
2023/10/15 10:56:04;;;;;;;0.00;0.00;;;;;;;19.08;46.90;102315.09;5121548;27;20493;-67
2023/10/15 10:58:30;;;;;;;0.00;0.00;;;;;;;18.70;47.46;102313.19;5129062;27;20022;-67
2023/10/15 11:00:59;;;;;;;1.27;1.17;;;;;;;18.26;48.84;102318.50;5112771;27;20618;-67
2023/10/15 11:03:25;;;;;;;2.57;2.37;;;;;;;17.72;49.49;102312.34;5121249;27;20027;-68
2023/10/15 11:05:57;;;;;;;0.00;0.00;;;;;;;17.57;48.50;102324.03;5112878;27;20027;-67
2023/10/15 11:08:23;;;;;;;0.32;0.15;;;;;;;17.93;49.08;102315.56;5115822;27;20028;-67
2023/10/15 11:10:49;;;;;;;0.00;0.00;;;;;;;18.30;48.60;102313.09;5116390;27;20080;-68
2023/10/15 11:13:15;;;;;;;0.00;0.00;;;;;;;18.26;47.20;102310.56;5111195;28;20475;-67
2023/10/15 11:15:45;;;;;;;0.00;0.00;;;;;;;17.87;48.48;102312.97;5093369;27;20032;-67
2023/10/15 11:18:11;;;;;;;0.00;0.00;;;;;;;18.44;48.87;102306.69;5120443;27;20430;-68
2023/10/15 11:20:36;;;;;;;0.00;0.00;;;;;;;18.19;48.17;102306.25;5120601;27;20032;-67
2023/10/15 11:23:08;;;;;;;0.00;0.00;;;;;;;18.50;48.24;102310.97;5126744;27;20039;-68
2023/10/15 11:25:37;;;;;;;0.00;0.00;;;;;;;19.14;47.69;102299.03;5112828;27;20474;-68
2023/10/15 11:28:06;;;;;;;0.00;0.00;;;;;;;18.96;47.48;102304.75;5128218;27;20019;-67
2023/10/15 11:30:33;;;;;;;0.00;0.00;;;;;;;18.31;45.88;102296.31;5115365;27;20027;-68
2023/10/15 11:33:00;;;;;;;0.00;0.00;;;;;;;18.99;44.46;102300.25;5108891;27;20031;-68
2023/10/15 11:35:35;;;;;;;0.00;0.00;;;;;;;17.87;46.71;102299.75;5105611;27;20012;-68
2023/10/15 11:38:10;;;;;;;0.23;0.23;;;;;;;18.44;45.09;102296.94;5101210;28;20122;-67